createdAt,value
2019-04-23T00:06:00.527Z,4.30
2019-04-23T00:08:50.139Z,6.93
2019-04-23T00:14:23.914Z,5.73
2019-04-23T00:19:49.443Z,8.07
2019-04-23T00:22:49.656Z,4.40
2019-04-23T00:28:45.566Z,5.93
2019-04-23T00:31:29.560Z,5.57
2019-04-23T00:34:09.295Z,5.80
2019-04-23T00:37:01.836Z,4.17
2019-04-23T00:39:46.858Z,3.67
2019-04-23T00:42:42.771Z,4.97
2019-04-23T00:45:39.865Z,4.97
2019-04-23T00:48:31.113Z,5.93
2019-04-23T00:51:02.285Z,4.30
2019-04-23T00:53:51.427Z,8.10
2019-04-23T00:59:26.850Z,3.87
2019-04-23T01:02:31.135Z,5.40
2019-04-23T01:05:05.170Z,4.03
2019-04-23T01:07:47.563Z,4.27
2019-04-23T01:14:11.524Z,8.07
2019-04-23T01:16:48.406Z,5.27
2019-04-23T01:22:38.020Z,7.00
2019-04-23T01:28:49.674Z,4.10
2019-04-23T01:31:34.861Z,4.47
2019-04-23T01:34:26.046Z,4.40
2019-04-23T01:37:15.519Z,5.63
2019-04-23T01:39:52.803Z,5.83
2019-04-23T01:42:40.683Z,6.97
2019-04-23T01:45:24.265Z,5.53
2019-04-23T01:48:05.202Z,7.43
2019-04-23T01:53:51.557Z,4.13
2019-04-23T01:57:16.609Z,5.50
2019-04-23T02:00:18.244Z,10.83
2019-04-23T02:05:55.538Z,5.33
2019-04-23T02:08:45.737Z,5.37
2019-04-23T02:11:35.652Z,7.17
2019-04-23T02:14:20.820Z,5.17
2019-04-23T02:17:10.200Z,10.03
2019-04-23T02:20:02.323Z,5.70
2019-04-23T02:25:53.807Z,7.93
2019-04-23T02:28:54.585Z,4.90
2019-04-23T02:34:52.648Z,6.50
2019-04-23T02:37:34.711Z,5.13
2019-04-23T02:40:23.366Z,4.00
2019-04-23T02:43:09.248Z,6.37
2019-04-23T02:46:04.365Z,6.00
2019-04-23T02:51:17.941Z,7.53
2019-04-23T03:02:58.744Z,5.57
2019-04-23T03:05:24.951Z,7.20
2019-04-23T03:11:08.144Z,5.43
2019-04-23T03:14:03.629Z,7.27
2019-04-23T03:19:58.554Z,5.47
2019-04-23T03:26:11.043Z,5.83
2019-04-23T03:40:18.730Z,7.67
2019-04-23T03:43:14.643Z,5.40
2019-04-23T03:46:00.910Z,5.17
2019-04-23T03:49:07.678Z,7.10
2019-04-23T03:51:17.221Z,7.87
2019-04-23T03:54:21.762Z,6.33
2019-04-23T03:57:06.006Z,7.07
2019-04-23T04:05:20.559Z,7.03
2019-04-23T04:08:12.088Z,6.93
2019-04-23T04:19:06.521Z,7.33
2019-04-23T04:22:16.346Z,5.50
2019-04-23T04:27:41.477Z,5.30
2019-04-23T04:30:22.190Z,5.50
2019-04-23T04:36:32.628Z,8.73
2019-04-23T04:39:26.878Z,8.80
2019-04-23T04:42:10.310Z,5.37
2019-04-23T04:45:23.239Z,6.33
2019-04-23T04:48:19.689Z,6.90
2019-04-23T04:51:00.462Z,5.90
2019-04-23T04:54:00.901Z,6.93
2019-04-23T04:59:35.152Z,5.30
2019-04-23T05:02:39.622Z,6.93
2019-04-23T05:05:31.333Z,8.80
2019-04-23T05:08:05.062Z,8.13
2019-04-23T05:16:09.638Z,7.97
2019-04-23T05:22:36.330Z,7.10
2019-04-23T05:25:17.506Z,7.33
2019-04-23T05:28:28.505Z,6.00
2019-04-23T05:31:02.364Z,11.27
2019-04-23T05:33:57.259Z,12.87
2019-04-23T05:36:41.498Z,8.40
2019-04-23T05:39:30.943Z,9.53
2019-04-23T05:45:13.954Z,7.43
2019-04-23T05:50:50.747Z,7.13
2019-04-23T05:53:33.038Z,8.23
2019-04-23T05:56:20.564Z,8.53
2019-04-23T06:02:13.260Z,7.30
2019-04-23T06:05:04.289Z,7.50
2019-04-23T06:07:49.351Z,8.83
2019-04-23T06:10:19.808Z,6.97
2019-04-23T06:13:22.509Z,9.20
2019-04-23T06:16:13.747Z,9.53
2019-04-23T06:19:02.863Z,7.20
2019-04-23T06:21:57.546Z,12.20
2019-04-23T06:27:22.069Z,8.30
2019-04-23T06:30:01.702Z,8.20
2019-04-23T06:32:52.277Z,10.97
2019-04-23T06:35:41.288Z,14.40
2019-04-23T06:38:41.038Z,10.70
2019-04-23T06:44:15.975Z,16.63
2019-04-23T06:47:30.891Z,15.53
2019-04-23T06:50:36.575Z,9.23
2019-04-23T06:52:55.815Z,12.03
2019-04-23T06:55:50.710Z,15.87
2019-04-23T07:01:17.633Z,9.87
2019-04-23T07:04:18.090Z,8.73
2019-04-23T07:07:36.564Z,11.03
2019-04-23T07:10:11.535Z,8.63
2019-04-23T07:15:42.368Z,12.57
2019-04-23T07:18:24.327Z,12.63
2019-04-23T07:21:17.802Z,9.20
2019-04-23T07:26:45.042Z,11.43
2019-04-23T07:29:38.989Z,7.90
2019-04-23T07:32:35.868Z,12.00
2019-04-23T07:35:25.718Z,8.67
2019-04-23T07:45:02.330Z,14.03
2019-04-23T07:48:10.618Z,11.03
2019-04-23T07:53:39.909Z,10.40
2019-04-23T07:56:42.240Z,12.03
2019-04-23T07:59:22.756Z,11.67
2019-04-23T08:02:06.112Z,11.70
2019-04-23T08:04:54.379Z,11.50
2019-04-23T08:07:37.793Z,11.23
2019-04-23T08:10:28.734Z,16.53
2019-04-23T08:13:37.940Z,16.63
2019-04-23T08:16:19.667Z,12.30
2019-04-23T08:19:07.768Z,8.40
2019-04-23T08:21:58.278Z,10.07
2019-04-23T08:25:12.977Z,11.43
2019-04-23T08:28:35.471Z,8.13
2019-04-23T08:31:07.850Z,9.23
2019-04-23T08:33:57.344Z,10.43
2019-04-23T08:36:44.463Z,10.50
2019-04-23T08:39:26.915Z,11.03
2019-04-23T08:48:41.315Z,12.67
2019-04-23T08:54:27.941Z,9.90
2019-04-23T08:57:04.015Z,10.23
2019-04-23T09:02:54.091Z,8.13
2019-04-23T09:05:38.702Z,8.97
2019-04-23T09:16:35.965Z,10.73
2019-04-23T09:19:32.103Z,8.17
2019-04-23T09:22:14.202Z,8.73
2019-04-23T09:25:03.938Z,12.23
2019-04-23T09:27:39.967Z,9.23
2019-04-23T09:30:38.770Z,8.93
2019-04-23T09:37:35.320Z,9.90
2019-04-23T09:40:41.503Z,14.77
2019-04-23T09:47:58.501Z,8.27
2019-04-23T09:56:10.348Z,12.30
2019-04-23T09:59:03.011Z,11.90
2019-04-23T10:01:51.228Z,8.20
2019-04-23T10:04:16.978Z,9.57
2019-04-23T10:07:12.686Z,10.40
2019-04-23T10:09:53.619Z,16.93
2019-04-23T10:12:48.210Z,10.13
2019-04-23T10:15:44.724Z,10.70
2019-04-23T10:18:29.126Z,17.17
2019-04-23T10:21:15.321Z,10.60
2019-04-23T10:24:09.611Z,10.40
2019-04-23T10:27:04.134Z,11.73
2019-04-23T10:29:50.003Z,7.43
2019-04-23T10:32:45.649Z,13.97
2019-04-23T10:35:41.107Z,14.33
2019-04-23T10:38:20.239Z,10.70
2019-04-23T10:41:04.408Z,9.10
2019-04-23T10:43:56.168Z,9.57
2019-04-23T10:47:45.214Z,9.87
2019-04-23T10:54:36.115Z,11.33
2019-04-23T10:57:28.215Z,7.87
2019-04-23T11:00:08.811Z,12.37
2019-04-23T11:02:58.883Z,14.87
2019-04-23T11:05:53.799Z,15.40
2019-04-23T11:08:31.095Z,12.87
2019-04-23T11:11:23.957Z,9.53
2019-04-23T11:14:13.289Z,8.97
2019-04-23T11:16:57.225Z,11.53
2019-04-23T11:19:52.855Z,9.33
2019-04-23T11:34:11.025Z,11.50
2019-04-23T11:39:38.728Z,10.10
2019-04-23T11:42:32.315Z,8.33
2019-04-23T11:45:28.199Z,13.77
2019-04-23T11:48:52.206Z,11.43
2019-04-23T11:51:26.215Z,10.17
2019-04-23T11:53:54.627Z,8.93
2019-04-23T11:59:29.632Z,11.70
2019-04-23T12:02:32.797Z,10.23
2019-04-23T12:05:48.198Z,8.90
2019-04-23T12:09:26.383Z,12.30
2019-04-23T12:12:08.529Z,7.57
2019-04-23T12:15:05.775Z,11.33
2019-04-23T12:18:16.993Z,10.27
2019-04-23T12:33:03.223Z,11.43
2019-04-23T12:35:51.940Z,8.93
2019-04-23T12:39:05.396Z,10.30
2019-04-23T12:42:12.740Z,13.93
2019-04-23T12:53:23.858Z,10.67
2019-04-23T12:56:21.227Z,11.90
2019-04-23T12:58:40.098Z,9.67
2019-04-23T13:01:49.005Z,7.67
2019-04-23T13:04:45.493Z,9.57
2019-04-23T13:07:36.711Z,12.57
2019-04-23T13:10:11.972Z,12.03
2019-04-23T13:13:04.222Z,11.73
2019-04-23T13:15:39.924Z,5.90
2019-04-23T13:18:41.440Z,6.83
2019-04-23T13:21:46.694Z,12.43
2019-04-23T13:24:32.855Z,9.40
2019-04-23T13:27:29.047Z,8.93
2019-04-23T13:30:11.837Z,13.47
2019-04-23T13:34:08.990Z,12.73
2019-04-23T13:35:53.661Z,7.43
2019-04-23T13:38:36.297Z,10.57
2019-04-23T13:44:00.100Z,12.50
2019-04-23T13:47:17.885Z,9.80
2019-04-23T13:50:30.943Z,10.13
2019-04-23T13:55:39.135Z,10.93
2019-04-23T14:01:20.058Z,9.10
2019-04-23T14:04:26.287Z,10.50
2019-04-23T14:06:49.531Z,15.67
2019-04-23T14:12:41.780Z,10.73
2019-04-23T14:21:11.176Z,10.40
2019-04-23T14:24:02.949Z,11.97
2019-04-23T14:29:28.485Z,15.27
2019-04-23T14:32:29.070Z,14.80
2019-04-23T14:35:14.016Z,12.17
2019-04-23T14:38:02.376Z,10.37
2019-04-23T14:43:23.859Z,9.77
2019-04-23T14:52:10.477Z,14.50
2019-04-23T14:55:35.904Z,11.47
2019-04-23T14:57:52.970Z,11.67
2019-04-23T15:00:33.503Z,13.13
2019-04-23T15:03:39.915Z,9.43
2019-04-23T15:06:47.814Z,10.60
2019-04-23T15:15:02.330Z,12.27
2019-04-23T15:17:45.174Z,8.50
2019-04-23T15:23:51.485Z,14.83
2019-04-23T15:27:47.423Z,12.20
2019-04-23T15:29:20.032Z,14.13
2019-04-23T15:32:18.675Z,15.47
2019-04-23T15:35:16.530Z,14.77
2019-04-23T15:38:20.473Z,9.43
2019-04-23T15:40:53.962Z,8.63
2019-04-23T15:43:52.263Z,14.20
2019-04-23T15:52:17.038Z,11.17
2019-04-23T15:58:05.482Z,12.27
2019-04-23T16:00:31.110Z,14.10
2019-04-23T16:02:50.478Z,11.67
2019-04-23T16:05:44.731Z,9.10
2019-04-23T16:09:04.758Z,12.10
2019-04-23T16:14:35.659Z,11.97
2019-04-23T16:17:21.203Z,13.73
2019-04-23T16:23:35.574Z,13.93
2019-04-23T16:26:28.868Z,11.70
2019-04-23T16:32:08.285Z,12.40
2019-04-23T16:35:15.636Z,15.93
2019-04-23T16:41:12.843Z,10.23
2019-04-23T16:44:07.957Z,9.93
2019-04-23T16:49:42.062Z,12.70
2019-04-23T16:52:34.872Z,11.77
2019-04-23T16:55:24.133Z,7.90
2019-04-23T16:58:23.280Z,10.40
2019-04-23T17:01:05.919Z,7.90
2019-04-23T17:06:48.964Z,10.73
2019-04-23T17:12:06.391Z,10.57
2019-04-23T17:14:48.170Z,9.13
2019-04-23T17:17:30.911Z,9.10
2019-04-23T17:20:28.691Z,10.33
2019-04-23T17:23:22.242Z,8.80
2019-04-23T17:25:59.225Z,6.77
2019-04-23T17:28:39.493Z,9.37
2019-04-23T17:31:35.277Z,10.97
2019-04-23T17:34:23.546Z,9.67
2019-04-23T17:37:12.381Z,7.23
2019-04-23T17:43:13.530Z,6.43
2019-04-23T17:46:27.318Z,7.17
2019-04-23T17:49:16.874Z,9.13
2019-04-23T17:52:22.070Z,8.43
2019-04-23T17:55:13.339Z,6.57
2019-04-23T17:58:03.908Z,9.90
2019-04-23T18:01:03.897Z,12.93
2019-04-23T18:03:52.540Z,6.73
2019-04-23T18:06:37.411Z,7.47
2019-04-23T18:09:26.222Z,7.90
2019-04-23T18:12:01.094Z,10.07
2019-04-23T18:14:40.354Z,9.63
2019-04-23T18:17:34.366Z,9.27
2019-04-23T18:24:23.321Z,9.90
2019-04-23T18:30:24.225Z,11.43
2019-04-23T18:36:29.699Z,10.03
2019-04-23T18:39:22.662Z,9.30
2019-04-23T18:42:25.745Z,7.10
2019-04-23T18:45:10.436Z,9.37
2019-04-23T18:47:52.014Z,9.93
2019-04-23T18:51:01.146Z,9.07
2019-04-23T18:53:57.354Z,8.33
2019-04-23T19:15:37.980Z,14.00
2019-04-23T19:18:45.167Z,23.20
2019-04-23T19:21:30.103Z,23.83
2019-04-23T19:24:04.732Z,19.63
2019-04-23T19:29:59.714Z,13.00
2019-04-23T19:33:29.857Z,13.77
2019-04-23T19:36:13.821Z,13.30
2019-04-23T19:38:56.065Z,13.20
2019-04-23T19:41:59.367Z,11.77
2019-04-23T19:44:24.480Z,8.80
2019-04-23T19:49:55.131Z,12.10
2019-04-23T19:55:36.339Z,9.40
2019-04-23T19:58:46.976Z,11.73
2019-04-23T20:12:46.540Z,12.60
2019-04-23T20:15:51.147Z,7.17
2019-04-23T20:18:40.209Z,10.67
2019-04-23T20:21:03.227Z,12.90
2019-04-23T20:26:41.324Z,6.50
2019-04-23T20:35:58.289Z,8.13
2019-04-23T20:41:32.949Z,6.80
2019-04-23T20:44:11.880Z,16.17
2019-04-23T20:52:33.930Z,12.80
2019-04-23T20:55:40.916Z,9.33
2019-04-23T20:58:59.640Z,13.67
2019-04-23T21:08:16.301Z,8.10
2019-04-23T21:10:51.116Z,6.67
2019-04-23T21:13:43.413Z,6.93
2019-04-23T21:16:05.042Z,9.40
2019-04-23T21:19:15.089Z,5.80
2019-04-23T21:22:12.215Z,7.00
2019-04-23T21:25:03.217Z,5.03
2019-04-23T21:27:57.225Z,5.13
2019-04-23T21:30:59.446Z,11.50
2019-04-23T21:34:06.122Z,8.67
2019-04-23T21:36:50.935Z,9.13
2019-04-23T21:40:33.814Z,7.40
2019-04-23T21:43:20.634Z,9.03
2019-04-23T21:46:28.118Z,7.60
2019-04-23T21:49:16.482Z,8.20
2019-04-23T21:54:49.169Z,7.77
2019-04-23T21:57:36.972Z,9.43
2019-04-23T22:00:19.008Z,7.13
2019-04-23T22:03:11.750Z,6.93
2019-04-23T22:08:44.112Z,6.73
2019-04-23T22:11:49.537Z,11.10
2019-04-23T22:14:21.714Z,6.17
2019-04-23T22:20:14.032Z,7.17
2019-04-23T22:23:00.896Z,6.97
2019-04-23T22:25:43.270Z,8.43
2019-04-23T22:28:17.974Z,6.53
2019-04-23T22:31:12.753Z,4.40
2019-04-23T22:34:06.266Z,8.10
2019-04-23T22:36:55.113Z,5.77
2019-04-23T22:39:36.339Z,4.60
2019-04-23T22:45:43.200Z,7.07
2019-04-23T22:48:13.897Z,8.07
2019-04-23T22:54:02.832Z,5.17
2019-04-23T22:56:43.964Z,8.17
2019-04-23T23:08:55.156Z,6.47
2019-04-23T23:11:22.614Z,6.37
2019-04-23T23:14:27.331Z,5.80
2019-04-23T23:20:11.731Z,5.77
2019-04-23T23:23:06.434Z,6.70
2019-04-23T23:33:48.998Z,6.43
2019-04-23T23:36:38.445Z,8.63
2019-04-23T23:42:09.756Z,7.10
2019-04-23T23:45:10.228Z,4.67
2019-04-23T23:51:39.779Z,6.00
2019-04-23T23:54:36.140Z,6.67
2019-04-23T23:57:21.522Z,6.73
